createdAt,value
2023-05-05T00:14:59.543Z,1413.50262
2023-05-05T00:30:01.371Z,1443.96603
2023-05-05T00:45:03.132Z,1509.00953
2023-05-05T01:00:04.951Z,1527.06602
2023-05-05T01:15:07.762Z,1570.00635
2023-05-05T01:30:09.673Z,1604.79091
2023-05-05T01:45:11.643Z,1634.14683
2023-05-05T02:00:13.524Z,1613.48634
2023-05-05T02:15:15.328Z,1658.41634
2023-05-05T02:30:17.116Z,1628.19004
2023-05-05T02:45:18.909Z,1662.53151
2023-05-05T03:00:20.671Z,1666.66716
2023-05-05T03:15:22.422Z,1672.90936
2023-05-05T03:30:24.156Z,1711.36703
2023-05-05T03:45:25.965Z,1730.14898
2023-05-05T04:00:27.705Z,1736.87671
2023-05-05T04:15:29.394Z,1729.03275
2023-05-05T04:30:31.168Z,1701.5878
2023-05-05T04:45:32.887Z,1727.91797
2023-05-05T05:00:34.659Z,1747.06699
2023-05-05T05:15:36.474Z,1805.93042
2023-05-05T05:30:38.245Z,1833.10583
2023-05-05T05:45:39.936Z,1843.19169
2023-05-05T06:00:41.721Z,1720.15454
2023-05-05T06:15:43.528Z,1704.8351
2023-05-05T06:30:45.326Z,1783.10096
2023-05-05T06:45:47.072Z,1879.38339
2023-05-05T07:00:48.889Z,1949.09141
2023-05-05T07:15:50.735Z,1986.65728
2023-05-05T07:30:52.463Z,2038.02331
2023-05-05T07:45:54.178Z,2097.02711
2023-05-05T08:00:55.935Z,2116.90414
2023-05-05T08:15:57.749Z,2163.03521
2023-05-05T08:30:59.570Z,2177.0923
2023-05-05T08:46:01.333Z,2220.38162
2023-05-05T09:01:03.178Z,2233.33384
2023-05-05T09:16:04.907Z,2144.0005
2023-05-05T09:31:06.796Z,2130.36616
2023-05-05T09:46:08.657Z,2130.36616
2023-05-05T10:01:10.561Z,2159.54925
2023-05-05T10:16:12.341Z,2203.94787
2023-05-05T10:31:25.118Z,2252.10135
2023-05-05T10:46:28.444Z,2265.42739
2023-05-05T11:01:30.404Z,2292.55825
2023-05-05T11:16:32.311Z,2326.3894
2023-05-05T11:31:34.155Z,2296.48723
2023-05-05T11:46:35.963Z,2229.61781
2023-05-05T12:01:37.835Z,1957.63381
2023-05-05T12:16:39.629Z,1700.50811
2023-05-05T12:31:41.638Z,1650.2468
2023-05-05T12:46:43.413Z,1720.15454
2023-05-05T13:01:45.168Z,1793.84253
2023-05-05T13:16:46.918Z,1875.43787
2023-05-05T13:31:48.981Z,1919.77127
2023-05-05T13:46:51.021Z,2002.99004
2023-05-05T14:01:52.791Z,1944.8481
2023-05-05T14:16:54.517Z,1620.31488
2023-05-05T14:31:56.300Z,1565.42105
2023-05-05T14:46:58.098Z,1556.33034
2023-05-05T15:01:59.911Z,1626.21409
2023-05-05T15:17:01.694Z,1712.46056
2023-05-05T15:32:03.507Z,1758.53068
2023-05-05T15:47:05.450Z,1771.31576
2023-05-05T16:02:07.277Z,1709.18417
2023-05-05T16:17:09.016Z,1763.15839
2023-05-05T16:32:10.777Z,1795.04403
2023-05-05T16:47:12.517Z,1814.48932
2023-05-05T17:02:14.274Z,1809.58861
2023-05-05T17:17:15.985Z,1807.14817
2023-05-05T17:32:17.762Z,1786.66716
2023-05-05T17:47:19.479Z,1730.14898
2023-05-05T18:02:21.327Z,1717.94921
2023-05-05T18:17:23.146Z,1742.52325
2023-05-05T18:32:24.958Z,1743.65697
2023-05-05T18:47:26.757Z,1748.20663
2023-05-05T19:02:28.498Z,1751.63448
2023-05-05T19:17:30.283Z,1723.47316
2023-05-05T19:32:31.984Z,1654.32148
2023-05-05T19:47:33.783Z,1628.19004
2023-05-05T20:02:37.056Z,1642.15736
2023-05-05T20:17:39.077Z,1658.41634
2023-05-05T20:32:40.895Z,1667.70429
2023-05-05T20:47:42.709Z,1691.91969
2023-05-05T21:02:44.593Z,1691.91969
2023-05-05T21:17:46.543Z,1656.36638
2023-05-05T21:32:48.347Z,1613.48634
2023-05-05T21:47:50.136Z,1603.83053
2023-05-05T22:02:51.891Z,1582.98927
2023-05-05T22:17:53.646Z,1562.68271
2023-05-05T22:32:55.383Z,1475.77144
2023-05-05T22:47:57.105Z,1375.77053
2023-05-05T23:02:58.887Z,1363.17447
2023-05-05T23:18:00.894Z,1363.17447
2023-05-05T23:33:02.722Z,1370.14366
2023-05-05T23:48:04.483Z,1378.60133
